Weather reports worldwide

Advertisment
Aosta, Italy (16054): temperature & dewpoint: 09.07.2018 21:00:00 - 15.07.2018 21:00:00 (CEST)Aosta, Italy (16054): wind speed: 09.07.2018 21:00:00 - 15.07.2018 21:00:00 (CEST)Aosta, Italy (16054): wind direction: 09.07.2018 21:00:00 - 15.07.2018 21:00:00 (CEST)Aosta, Italy (16054): visibility: 09.07.2018 21:00:00 - 15.07.2018 21:00:00 (CEST)
Date & Time tt [°C] td [°C] ff [km/h] ff [kn] dd vv [km]
15.07.2018 21:00:00 - - - - - -
15.07.2018 20:00:00 25,0 16,0 13 7 E 10
15.07.2018 19:00:00 27,0 13,0 13 7 E 10
15.07.2018 18:00:00 29,0 13,0 15 8 ESE 10
15.07.2018 17:00:00 29,0 11,0 18 10 SSW 10
15.07.2018 16:00:00 29,0 15,0 16 9 E 10
15.07.2018 15:00:00 27,0 14,0 11 6 E 10
15.07.2018 14:00:00 25,0 13,0 8 4 E 10
15.07.2018 13:00:00 24,0 13,0 11 6 E 10
15.07.2018 12:00:00 23,0 13,0 11 6 E 10
15.07.2018 11:00:00 20,0 14,0 2 1 - 10
15.07.2018 10:00:00 19,0 13,0 2 1 - 10
15.07.2018 09:00:00 18,0 14,0 5 3 WSW 10
15.07.2018 08:00:00 17,0 14,0 2 1 - 10
15.07.2018 07:00:00 14,0 14,0 2 1 - 10
15.07.2018 06:00:00 14,0 14,0 0 0 N 10
15.07.2018 05:00:00 - - - - - -
15.07.2018 04:00:00 - - - - - -
15.07.2018 03:00:00 - - - - - -
15.07.2018 02:00:00 - - - - - -
15.07.2018 01:00:00 - - - - - -
15.07.2018 00:00:00 - - - - - -
14.07.2018 23:00:00 - - - - - -
14.07.2018 22:00:00 22,0 15,0 4 2 - 10
14.07.2018 21:00:00 24,0 15,0 8 4 ENE 10
14.07.2018 20:00:00 25,0 16,0 5 3 ENE 10
14.07.2018 19:00:00 26,0 15,0 9 5 ESE 10
14.07.2018 18:00:00 25,0 16,0 8 4 SSE 10
14.07.2018 17:00:00 24,0 15,0 4 2 - 10
14.07.2018 16:00:00 23,0 15,0 15 8 WNW 10
14.07.2018 15:00:00 - - - - - -
14.07.2018 14:00:00 30,0 15,0 26 14 E 10
14.07.2018 13:00:00 29,0 16,0 18 10 ESE 10
14.07.2018 12:00:00 27,0 15,0 15 8 E 10
14.07.2018 11:00:00 - - - - - -
14.07.2018 10:00:00 23,0 13,0 0 0 N 10
14.07.2018 09:00:00 21,0 13,0 2 1 - 10
14.07.2018 08:00:00 18,0 13,0 0 0 N 10
14.07.2018 07:00:00 17,0 14,0 0 0 N 10
14.07.2018 06:00:00 17,0 13,0 0 0 N 10
14.07.2018 05:00:00 - - - - - -
14.07.2018 04:00:00 - - - - - -
14.07.2018 03:00:00 - - - - - -
14.07.2018 02:00:00 - - - - - -
14.07.2018 01:00:00 - - - - - -
14.07.2018 00:00:00 - - - - - -
13.07.2018 23:00:00 - - - - - -
13.07.2018 22:00:00 24,0 15,0 13 7 E 10
13.07.2018 21:00:00 25,0 16,0 22 12 E 10
13.07.2018 20:00:00 27,0 15,0 24 13 E 10
13.07.2018 19:00:00 28,0 13,0 28 15 E 10
13.07.2018 18:00:00 29,0 15,0 26 14 ESE 10
13.07.2018 17:00:00 30,0 14,0 26 14 E 10
13.07.2018 16:00:00 31,0 12,0 21 11 E 10
13.07.2018 15:00:00 30,0 11,0 24 13 E 10
13.07.2018 14:00:00 29,0 9,0 18 10 E 10
13.07.2018 13:00:00 27,0 10,0 18 10 ESE 10
13.07.2018 12:00:00 26,0 11,0 13 7 E 10
13.07.2018 11:00:00 24,0 10,0 4 2 - 10
13.07.2018 10:00:00 21,0 10,0 4 2 - 10
13.07.2018 09:00:00 20,0 11,0 2 1 - 10
13.07.2018 08:00:00 18,0 11,0 0 0 N 10
13.07.2018 07:00:00 15,0 12,0 4 2 - 10
13.07.2018 06:00:00 14,0 12,0 0 0 N 10
13.07.2018 05:00:00 - - - - - -
13.07.2018 04:00:00 - - - - - -
13.07.2018 03:00:00 - - - - - -
13.07.2018 02:00:00 - - - - - -
13.07.2018 01:00:00 - - - - - -
13.07.2018 00:00:00 - - - - - -
12.07.2018 23:00:00 - - - - - -
12.07.2018 22:00:00 - - - - - -
12.07.2018 21:00:00 24,0 16,0 11 6 E 10
12.07.2018 20:00:00 25,0 15,0 21 11 E 10
12.07.2018 19:00:00 26,0 15,0 29 16 E 10
12.07.2018 18:00:00 26,0 15,0 26 14 E 10
12.07.2018 17:00:00 27,0 15,0 37 20 E 10
12.07.2018 16:00:00 28,0 15,0 34 18 E 10
12.07.2018 15:00:00 28,0 15,0 35 19 E 10
12.07.2018 14:00:00 27,0 15,0 28 15 E 10
12.07.2018 13:00:00 27,0 15,0 22 12 E 10
12.07.2018 12:00:00 25,0 14,0 16 9 E 10
12.07.2018 11:00:00 23,0 13,0 5 3 ESE 10
12.07.2018 10:00:00 22,0 12,0 4 2 - 10
12.07.2018 09:00:00 20,0 12,0 2 1 - 10
12.07.2018 08:00:00 18,0 11,0 5 3 WSW 10
12.07.2018 07:00:00 17,0 13,0 2 1 - 10
12.07.2018 06:00:00 17,0 13,0 2 1 - 10
12.07.2018 05:00:00 - - - - - -
12.07.2018 04:00:00 - - - - - -
12.07.2018 03:00:00 - - - - - -
12.07.2018 02:00:00 - - - - - -
12.07.2018 01:00:00 - - - - - -
12.07.2018 00:00:00 - - - - - -
11.07.2018 23:00:00 - - - - - -
11.07.2018 22:00:00 22,0 16,0 15 8 ESE 10
11.07.2018 21:00:00 23,0 15,0 28 15 E 10
11.07.2018 20:00:00 25,0 15,0 31 17 E 10
11.07.2018 19:00:00 25,0 15,0 35 19 E 10
11.07.2018 18:00:00 27,0 15,0 34 18 E 10
11.07.2018 17:00:00 27,0 15,0 31 17 E 10
11.07.2018 16:00:00 27,0 14,0 37 20 E 10
11.07.2018 15:00:00 27,0 14,0 34 18 E 10
11.07.2018 14:00:00 28,0 11,0 28 15 E 10
11.07.2018 13:00:00 28,0 9,0 21 11 E 10
11.07.2018 12:00:00 26,0 9,0 18 10 E 10
11.07.2018 11:00:00 25,0 9,0 11 6 E 10
11.07.2018 10:00:00 23,0 8,0 9 5 E 10
11.07.2018 09:00:00 21,0 9,0 5 3 E 10
11.07.2018 08:00:00 19,0 9,0 4 2 - 10
11.07.2018 07:00:00 15,0 9,0 4 2 - 10
11.07.2018 06:00:00 17,0 8,0 5 3 ENE 10
11.07.2018 05:00:00 - - - - - -
11.07.2018 04:00:00 - - - - - -
11.07.2018 03:00:00 - - - - - -
11.07.2018 02:00:00 - - - - - -
11.07.2018 01:00:00 - - - - - -
11.07.2018 00:00:00 - - - - - -
10.07.2018 23:00:00 - - - - - -
10.07.2018 22:00:00 26,0 8,0 22 12 NW 10
10.07.2018 21:00:00 25,0 16,0 8 4 N 10
10.07.2018 20:00:00 27,0 16,0 9 5 - 10
10.07.2018 19:00:00 28,0 16,0 21 11 E 10
10.07.2018 18:00:00 28,0 16,0 24 13 ESE 10
10.07.2018 17:00:00 29,0 16,0 29 16 E 10
10.07.2018 16:00:00 29,0 15,0 31 17 E 10
10.07.2018 15:00:00 29,0 16,0 29 16 E 10
10.07.2018 14:00:00 29,0 14,0 29 16 E 10
10.07.2018 13:00:00 29,0 14,0 18 10 E 10
10.07.2018 12:00:00 27,0 15,0 15 8 E 10
10.07.2018 11:00:00 25,0 15,0 5 3 - 10
10.07.2018 10:00:00 24,0 14,0 2 1 - 10
10.07.2018 09:00:00 22,0 14,0 0 0 N 10
10.07.2018 08:00:00 19,0 15,0 2 1 - 10
10.07.2018 07:00:00 18,0 14,0 4 2 - 10
10.07.2018 06:00:00 18,0 15,0 2 1 - 10
10.07.2018 05:00:00 - - - - - -
10.07.2018 04:00:00 - - - - - -
10.07.2018 03:00:00 - - - - - -
10.07.2018 02:00:00 - - - - - -
10.07.2018 01:00:00 - - - - - -
10.07.2018 00:00:00 - - - - - -
09.07.2018 23:00:00 - - - - - -
09.07.2018 22:00:00 24,0 16,0 9 5 E 10
09.07.2018 21:00:00 25,0 16,0 16 9 E 10

tt = temperature
td = dewpoint
ff = wind speed
dd = wind direction
vv = visibility

Next stations